sensor_id;sensor_type;location;lat;lon;timestamp;P1;durP1;ratioP1;P2;durP2;ratioP2
21513;SDS011;10918;48.102;11.636;2023-11-18T00:01:24;4.97;;;4.47;;
21513;SDS011;10918;48.102;11.636;2023-11-18T00:03:50;5.63;;;4.85;;
21513;SDS011;10918;48.102;11.636;2023-11-18T00:06:16;11.13;;;5.32;;
21513;SDS011;10918;48.102;11.636;2023-11-18T00:08:42;5.28;;;4.78;;
21513;SDS011;10918;48.102;11.636;2023-11-18T00:11:08;6.20;;;4.90;;
21513;SDS011;10918;48.102;11.636;2023-11-18T00:13:36;4.65;;;4.18;;
21513;SDS011;10918;48.102;11.636;2023-11-18T00:16:04;5.93;;;4.90;;
21513;SDS011;10918;48.102;11.636;2023-11-18T00:18:30;4.78;;;4.28;;
21513;SDS011;10918;48.102;11.636;2023-11-18T00:20:57;5.22;;;4.72;;
21513;SDS011;10918;48.102;11.636;2023-11-18T00:23:23;7.05;;;5.07;;
21513;SDS011;10918;48.102;11.636;2023-11-18T00:25:49;6.63;;;4.53;;
21513;SDS011;10918;48.102;11.636;2023-11-18T00:28:17;4.97;;;4.47;;
21513;SDS011;10918;48.102;11.636;2023-11-18T00:30:44;4.72;;;4.18;;
21513;SDS011;10918;48.102;11.636;2023-11-18T00:33:10;5.00;;;4.53;;
21513;SDS011;10918;48.102;11.636;2023-11-18T00:35:37;10.93;;;7.40;;
21513;SDS011;10918;48.102;11.636;2023-11-18T00:38:03;5.40;;;4.47;;
21513;SDS011;10918;48.102;11.636;2023-11-18T00:40:29;4.80;;;4.30;;
21513;SDS011;10918;48.102;11.636;2023-11-18T00:42:58;4.40;;;3.92;;
21513;SDS011;10918;48.102;11.636;2023-11-18T00:45:24;5.45;;;3.78;;
21513;SDS011;10918;48.102;11.636;2023-11-18T00:47:50;4.65;;;3.78;;
21513;SDS011;10918;48.102;11.636;2023-11-18T00:50:16;5.15;;;3.75;;
21513;SDS011;10918;48.102;11.636;2023-11-18T00:52:42;3.88;;;3.47;;
21513;SDS011;10918;48.102;11.636;2023-11-18T00:55:08;3.72;;;2.90;;
21513;SDS011;10918;48.102;11.636;2023-11-18T00:57:36;3.45;;;3.15;;
21513;SDS011;10918;48.102;11.636;2023-11-18T01:00:04;3.95;;;3.40;;
21513;SDS011;10918;48.102;11.636;2023-11-18T01:02:31;3.85;;;3.50;;
21513;SDS011;10918;48.102;11.636;2023-11-18T01:04:57;5.07;;;2.75;;
21513;SDS011;10918;48.102;11.636;2023-11-18T01:07:23;3.10;;;2.80;;
21513;SDS011;10918;48.102;11.636;2023-11-18T01:09:49;3.20;;;2.90;;
21513;SDS011;10918;48.102;11.636;2023-11-18T01:12:15;3.63;;;3.10;;
21513;SDS011;10918;48.102;11.636;2023-11-18T01:14:41;2.92;;;2.72;;
21513;SDS011;10918;48.102;11.636;2023-11-18T01:17:07;3.97;;;3.17;;
21513;SDS011;10918;48.102;11.636;2023-11-18T01:19:34;2.45;;;2.25;;
21513;SDS011;10918;48.102;11.636;2023-11-18T01:22:00;3.15;;;2.70;;
21513;SDS011;10918;48.102;11.636;2023-11-18T01:24:30;3.45;;;2.63;;
21513;SDS011;10918;48.102;11.636;2023-11-18T01:26:56;3.30;;;2.58;;
21513;SDS011;10918;48.102;11.636;2023-11-18T01:29:24;3.00;;;2.70;;
21513;SDS011;10918;48.102;11.636;2023-11-18T01:31:50;3.08;;;2.40;;
21513;SDS011;10918;48.102;11.636;2023-11-18T01:34:17;2.83;;;2.50;;
21513;SDS011;10918;48.102;11.636;2023-11-18T01:36:46;2.80;;;2.60;;
21513;SDS011;10918;48.102;11.636;2023-11-18T01:39:14;2.55;;;2.35;;
21513;SDS011;10918;48.102;11.636;2023-11-18T01:41:40;2.53;;;2.22;;
21513;SDS011;10918;48.102;11.636;2023-11-18T01:44:06;2.53;;;2.00;;
21513;SDS011;10918;48.102;11.636;2023-11-18T01:46:33;2.08;;;1.88;;
21513;SDS011;10918;48.102;11.636;2023-11-18T01:49:00;2.28;;;2.08;;
21513;SDS011;10918;48.102;11.636;2023-11-18T01:51:28;2.05;;;1.85;;
21513;SDS011;10918;48.102;11.636;2023-11-18T01:53:54;2.30;;;1.77;;
21513;SDS011;10918;48.102;11.636;2023-11-18T01:56:20;5.75;;;4.43;;
21513;SDS011;10918;48.102;11.636;2023-11-18T01:58:50;2.72;;;2.17;;
21513;SDS011;10918;48.102;11.636;2023-11-18T02:01:16;1.88;;;1.67;;
21513;SDS011;10918;48.102;11.636;2023-11-18T02:03:43;1.90;;;1.80;;
21513;SDS011;10918;48.102;11.636;2023-11-18T02:06:08;1.75;;;1.65;;
21513;SDS011;10918;48.102;11.636;2023-11-18T02:08:35;1.92;;;1.63;;
21513;SDS011;10918;48.102;11.636;2023-11-18T02:13:49;1.83;;;1.70;;
21513;SDS011;10918;48.102;11.636;2023-11-18T02:16:18;2.53;;;1.77;;
21513;SDS011;10918;48.102;11.636;2023-11-18T02:18:45;2.17;;;1.77;;
21513;SDS011;10918;48.102;11.636;2023-11-18T02:21:14;2.65;;;2.05;;
21513;SDS011;10918;48.102;11.636;2023-11-18T02:23:40;1.85;;;1.75;;
21513;SDS011;10918;48.102;11.636;2023-11-18T02:26:07;2.17;;;1.88;;
21513;SDS011;10918;48.102;11.636;2023-11-18T02:28:34;2.72;;;2.10;;
21513;SDS011;10918;48.102;11.636;2023-11-18T02:31:02;1.98;;;1.77;;
21513;SDS011;10918;48.102;11.636;2023-11-18T02:33:36;3.05;;;2.30;;
21513;SDS011;10918;48.102;11.636;2023-11-18T02:36:09;7.95;;;5.60;;
21513;SDS011;10918;48.102;11.636;2023-11-18T02:38:39;7.03;;;5.50;;
21513;SDS011;10918;48.102;11.636;2023-11-18T02:41:09;2.97;;;2.13;;
21513;SDS011;10918;48.102;11.636;2023-11-18T02:43:36;1.95;;;1.75;;
21513;SDS011;10918;48.102;11.636;2023-11-18T02:46:04;1.73;;;1.63;;
21513;SDS011;10918;48.102;11.636;2023-11-18T02:48:31;1.80;;;1.65;;
21513;SDS011;10918;48.102;11.636;2023-11-18T02:50:58;1.80;;;1.70;;
21513;SDS011;10918;48.102;11.636;2023-11-18T02:53:24;2.00;;;1.70;;
21513;SDS011;10918;48.102;11.636;2023-11-18T02:55:50;2.47;;;1.80;;
21513;SDS011;10918;48.102;11.636;2023-11-18T02:58:17;1.75;;;1.65;;
21513;SDS011;10918;48.102;11.636;2023-11-18T03:00:43;2.10;;;1.90;;
21513;SDS011;10918;48.102;11.636;2023-11-18T03:03:10;2.42;;;1.85;;
21513;SDS011;10918;48.102;11.636;2023-11-18T03:05:36;2.20;;;2.00;;
21513;SDS011;10918;48.102;11.636;2023-11-18T03:08:02;1.73;;;1.63;;
21513;SDS011;10918;48.102;11.636;2023-11-18T03:10:31;2.13;;;1.63;;
21513;SDS011;10918;48.102;11.636;2023-11-18T03:13:00;3.97;;;2.58;;
21513;SDS011;10918;48.102;11.636;2023-11-18T03:15:26;2.45;;;2.15;;
21513;SDS011;10918;48.102;11.636;2023-11-18T03:17:53;1.73;;;1.60;;
21513;SDS011;10918;48.102;11.636;2023-11-18T03:20:21;1.58;;;1.48;;
21513;SDS011;10918;48.102;11.636;2023-11-18T03:22:48;2.55;;;2.03;;
21513;SDS011;10918;48.102;11.636;2023-11-18T03:25:15;1.88;;;1.73;;
21513;SDS011;10918;48.102;11.636;2023-11-18T03:27:41;2.03;;;1.83;;
21513;SDS011;10918;48.102;11.636;2023-11-18T03:30:08;1.98;;;1.77;;
21513;SDS011;10918;48.102;11.636;2023-11-18T03:32:34;2.20;;;2.00;;
21513;SDS011;10918;48.102;11.636;2023-11-18T03:35:02;2.22;;;2.03;;
21513;SDS011;10918;48.102;11.636;2023-11-18T03:37:29;2.78;;;1.80;;
21513;SDS011;10918;48.102;11.636;2023-11-18T03:39:56;2.65;;;2.38;;
21513;SDS011;10918;48.102;11.636;2023-11-18T03:42:22;2.22;;;2.03;;
21513;SDS011;10918;48.102;11.636;2023-11-18T03:44:51;2.03;;;1.90;;
21513;SDS011;10918;48.102;11.636;2023-11-18T03:47:17;1.85;;;1.73;;
21513;SDS011;10918;48.102;11.636;2023-11-18T03:49:43;2.28;;;1.95;;
21513;SDS011;10918;48.102;11.636;2023-11-18T03:52:09;2.58;;;2.25;;
21513;SDS011;10918;48.102;11.636;2023-11-18T03:54:35;2.10;;;1.90;;
21513;SDS011;10918;48.102;11.636;2023-11-18T03:57:00;2.05;;;1.85;;
21513;SDS011;10918;48.102;11.636;2023-11-18T03:59:26;2.33;;;2.10;;
21513;SDS011;10918;48.102;11.636;2023-11-18T04:01:52;3.10;;;2.20;;
21513;SDS011;10918;48.102;11.636;2023-11-18T04:04:18;2.40;;;2.03;;
21513;SDS011;10918;48.102;11.636;2023-11-18T04:06:44;2.38;;;2.00;;
21513;SDS011;10918;48.102;11.636;2023-11-18T04:09:11;2.90;;;2.60;;
21513;SDS011;10918;48.102;11.636;2023-11-18T04:11:38;2.20;;;2.00;;
21513;SDS011;10918;48.102;11.636;2023-11-18T04:14:07;3.08;;;2.20;;
21513;SDS011;10918;48.102;11.636;2023-11-18T04:16:33;3.30;;;3.00;;
21513;SDS011;10918;48.102;11.636;2023-11-18T04:18:59;4.57;;;3.08;;
21513;SDS011;10918;48.102;11.636;2023-11-18T04:21:25;2.97;;;2.67;;
21513;SDS011;10918;48.102;11.636;2023-11-18T04:23:51;2.60;;;2.40;;
21513;SDS011;10918;48.102;11.636;2023-11-18T04:26:17;2.78;;;2.45;;
21513;SDS011;10918;48.102;11.636;2023-11-18T04:28:43;3.90;;;2.67;;
21513;SDS011;10918;48.102;11.636;2023-11-18T04:31:09;3.03;;;2.72;;
21513;SDS011;10918;48.102;11.636;2023-11-18T04:33:36;3.00;;;2.70;;
21513;SDS011;10918;48.102;11.636;2023-11-18T04:36:02;3.00;;;2.70;;
21513;SDS011;10918;48.102;11.636;2023-11-18T04:38:30;3.47;;;2.80;;
21513;SDS011;10918;48.102;11.636;2023-11-18T04:40:57;3.95;;;3.10;;
21513;SDS011;10918;48.102;11.636;2023-11-18T04:43:29;3.10;;;2.80;;
21513;SDS011;10918;48.102;11.636;2023-11-18T04:45:55;4.35;;;3.00;;
21513;SDS011;10918;48.102;11.636;2023-11-18T04:48:21;2.75;;;2.55;;
21513;SDS011;10918;48.102;11.636;2023-11-18T04:50:47;2.88;;;2.55;;
21513;SDS011;10918;48.102;11.636;2023-11-18T04:53:13;3.45;;;2.85;;
21513;SDS011;10918;48.102;11.636;2023-11-18T04:55:39;3.10;;;2.80;;
21513;SDS011;10918;48.102;11.636;2023-11-18T04:58:05;2.95;;;2.65;;
21513;SDS011;10918;48.102;11.636;2023-11-18T05:00:31;3.20;;;2.88;;
21513;SDS011;10918;48.102;11.636;2023-11-18T05:02:58;3.42;;;2.97;;
21513;SDS011;10918;48.102;11.636;2023-11-18T05:05:24;3.08;;;2.70;;
21513;SDS011;10918;48.102;11.636;2023-11-18T05:07:50;3.08;;;2.78;;
21513;SDS011;10918;48.102;11.636;2023-11-18T05:10:15;3.03;;;2.72;;
21513;SDS011;10918;48.102;11.636;2023-11-18T05:12:48;3.53;;;2.95;;
21513;SDS011;10918;48.102;11.636;2023-11-18T05:15:20;3.28;;;2.97;;
21513;SDS011;10918;48.102;11.636;2023-11-18T05:17:49;2.95;;;2.60;;
21513;SDS011;10918;48.102;11.636;2023-11-18T05:20:15;4.75;;;3.15;;
21513;SDS011;10918;48.102;11.636;2023-11-18T05:22:42;3.63;;;3.00;;
21513;SDS011;10918;48.102;11.636;2023-11-18T05:25:08;2.90;;;2.60;;
21513;SDS011;10918;48.102;11.636;2023-11-18T05:27:38;2.63;;;2.42;;
21513;SDS011;10918;48.102;11.636;2023-11-18T05:30:08;3.97;;;3.40;;
21513;SDS011;10918;48.102;11.636;2023-11-18T05:32:34;3.22;;;2.92;;
21513;SDS011;10918;48.102;11.636;2023-11-18T05:35:00;3.42;;;2.95;;
21513;SDS011;10918;48.102;11.636;2023-11-18T05:37:26;3.97;;;3.30;;
21513;SDS011;10918;48.102;11.636;2023-11-18T05:40:00;4.60;;;3.90;;
21513;SDS011;10918;48.102;11.636;2023-11-18T05:42:31;3.47;;;2.97;;
21513;SDS011;10918;48.102;11.636;2023-11-18T05:44:57;3.03;;;2.67;;
21513;SDS011;10918;48.102;11.636;2023-11-18T05:47:25;2.85;;;2.38;;
21513;SDS011;10918;48.102;11.636;2023-11-18T05:49:51;3.10;;;2.60;;
21513;SDS011;10918;48.102;11.636;2023-11-18T05:52:18;4.05;;;2.60;;
21513;SDS011;10918;48.102;11.636;2023-11-18T05:54:45;5.20;;;3.20;;
21513;SDS011;10918;48.102;11.636;2023-11-18T05:57:12;3.83;;;2.80;;
21513;SDS011;10918;48.102;11.636;2023-11-18T05:59:38;3.75;;;2.88;;
21513;SDS011;10918;48.102;11.636;2023-11-18T06:02:04;3.10;;;2.80;;
21513;SDS011;10918;48.102;11.636;2023-11-18T06:04:30;2.83;;;2.40;;
21513;SDS011;10918;48.102;11.636;2023-11-18T06:06:56;2.60;;;2.40;;
21513;SDS011;10918;48.102;11.636;2023-11-18T06:09:22;2.90;;;2.53;;
21513;SDS011;10918;48.102;11.636;2023-11-18T06:11:50;2.95;;;2.50;;
21513;SDS011;10918;48.102;11.636;2023-11-18T06:14:18;3.30;;;2.90;;
21513;SDS011;10918;48.102;11.636;2023-11-18T06:16:44;2.83;;;2.60;;
21513;SDS011;10918;48.102;11.636;2023-11-18T06:19:11;3.17;;;2.70;;
21513;SDS011;10918;48.102;11.636;2023-11-18T06:21:38;3.72;;;2.67;;
21513;SDS011;10918;48.102;11.636;2023-11-18T06:24:05;3.08;;;2.35;;
21513;SDS011;10918;48.102;11.636;2023-11-18T06:26:31;2.80;;;2.30;;
21513;SDS011;10918;48.102;11.636;2023-11-18T06:29:00;3.33;;;2.40;;
21513;SDS011;10918;48.102;11.636;2023-11-18T06:31:26;2.90;;;2.10;;
21513;SDS011;10918;48.102;11.636;2023-11-18T06:33:54;3.15;;;2.60;;
21513;SDS011;10918;48.102;11.636;2023-11-18T06:36:20;2.85;;;2.28;;
21513;SDS011;10918;48.102;11.636;2023-11-18T06:38:50;2.80;;;2.20;;
21513;SDS011;10918;48.102;11.636;2023-11-18T06:41:16;2.33;;;2.13;;
21513;SDS011;10918;48.102;11.636;2023-11-18T06:43:46;3.47;;;2.40;;
21513;SDS011;10918;48.102;11.636;2023-11-18T06:46:25;3.67;;;2.60;;
21513;SDS011;10918;48.102;11.636;2023-11-18T06:48:52;4.82;;;2.13;;
21513;SDS011;10918;48.102;11.636;2023-11-18T06:51:19;2.90;;;2.42;;
21513;SDS011;10918;48.102;11.636;2023-11-18T06:53:49;3.72;;;2.70;;
21513;SDS011;10918;48.102;11.636;2023-11-18T06:56:15;3.45;;;2.80;;
21513;SDS011;10918;48.102;11.636;2023-11-18T06:58:41;3.63;;;2.45;;
21513;SDS011;10918;48.102;11.636;2023-11-18T07:01:08;2.80;;;2.50;;
21513;SDS011;10918;48.102;11.636;2023-11-18T07:03:34;4.07;;;2.83;;
21513;SDS011;10918;48.102;11.636;2023-11-18T07:06:01;3.05;;;2.55;;
21513;SDS011;10918;48.102;11.636;2023-11-18T07:08:27;2.80;;;2.60;;
21513;SDS011;10918;48.102;11.636;2023-11-18T07:10:53;3.08;;;2.42;;
21513;SDS011;10918;48.102;11.636;2023-11-18T07:13:20;3.90;;;3.35;;
21513;SDS011;10918;48.102;11.636;2023-11-18T07:15:48;5.50;;;3.03;;
21513;SDS011;10918;48.102;11.636;2023-11-18T07:18:14;4.15;;;2.80;;
21513;SDS011;10918;48.102;11.636;2023-11-18T07:20:41;3.78;;;2.85;;
21513;SDS011;10918;48.102;11.636;2023-11-18T07:23:07;5.05;;;3.20;;
21513;SDS011;10918;48.102;11.636;2023-11-18T07:25:33;3.65;;;2.92;;
21513;SDS011;10918;48.102;11.636;2023-11-18T07:27:59;3.55;;;3.00;;
21513;SDS011;10918;48.102;11.636;2023-11-18T07:30:25;4.03;;;3.08;;
21513;SDS011;10918;48.102;11.636;2023-11-18T07:32:51;3.75;;;3.00;;
21513;SDS011;10918;48.102;11.636;2023-11-18T07:35:18;3.83;;;3.25;;
21513;SDS011;10918;48.102;11.636;2023-11-18T07:37:44;3.83;;;2.88;;
21513;SDS011;10918;48.102;11.636;2023-11-18T07:40:10;3.22;;;2.92;;
21513;SDS011;10918;48.102;11.636;2023-11-18T07:42:37;3.35;;;2.95;;
21513;SDS011;10918;48.102;11.636;2023-11-18T07:45:03;3.97;;;3.22;;
21513;SDS011;10918;48.102;11.636;2023-11-18T07:47:32;3.53;;;3.22;;
21513;SDS011;10918;48.102;11.636;2023-11-18T07:49:59;3.05;;;2.72;;
21513;SDS011;10918;48.102;11.636;2023-11-18T07:52:29;6.35;;;4.18;;
21513;SDS011;10918;48.102;11.636;2023-11-18T07:54:55;3.78;;;3.38;;
21513;SDS011;10918;48.102;11.636;2023-11-18T07:57:21;4.78;;;3.20;;
21513;SDS011;10918;48.102;11.636;2023-11-18T07:59:49;3.25;;;2.85;;
21513;SDS011;10918;48.102;11.636;2023-11-18T08:02:16;3.00;;;2.80;;
21513;SDS011;10918;48.102;11.636;2023-11-18T08:04:43;3.15;;;2.85;;
21513;SDS011;10918;48.102;11.636;2023-11-18T08:07:10;4.10;;;2.97;;
21513;SDS011;10918;48.102;11.636;2023-11-18T08:09:36;4.15;;;2.97;;
21513;SDS011;10918;48.102;11.636;2023-11-18T08:12:04;3.60;;;2.85;;
21513;SDS011;10918;48.102;11.636;2023-11-18T08:14:31;4.78;;;3.13;;
21513;SDS011;10918;48.102;11.636;2023-11-18T08:16:57;3.08;;;2.67;;
21513;SDS011;10918;48.102;11.636;2023-11-18T08:19:25;3.13;;;2.63;;
21513;SDS011;10918;48.102;11.636;2023-11-18T08:21:51;2.58;;;2.38;;
21513;SDS011;10918;48.102;11.636;2023-11-18T08:24:17;2.88;;;2.58;;
21513;SDS011;10918;48.102;11.636;2023-11-18T08:26:43;3.58;;;2.85;;
21513;SDS011;10918;48.102;11.636;2023-11-18T08:29:09;2.65;;;2.42;;
21513;SDS011;10918;48.102;11.636;2023-11-18T08:31:35;3.47;;;2.78;;
21513;SDS011;10918;48.102;11.636;2023-11-18T08:34:01;3.25;;;2.58;;
21513;SDS011;10918;48.102;11.636;2023-11-18T08:36:27;2.47;;;2.28;;
21513;SDS011;10918;48.102;11.636;2023-11-18T08:38:57;5.00;;;3.92;;
21513;SDS011;10918;48.102;11.636;2023-11-18T08:41:23;3.70;;;3.20;;
21513;SDS011;10918;48.102;11.636;2023-11-18T08:43:49;3.35;;;2.60;;
21513;SDS011;10918;48.102;11.636;2023-11-18T08:46:16;4.95;;;2.97;;
21513;SDS011;10918;48.102;11.636;2023-11-18T08:48:42;2.70;;;2.50;;
21513;SDS011;10918;48.102;11.636;2023-11-18T08:51:09;3.25;;;2.63;;
21513;SDS011;10918;48.102;11.636;2023-11-18T08:53:37;15.73;;;12.32;;
21513;SDS011;10918;48.102;11.636;2023-11-18T08:56:09;2.88;;;2.58;;
21513;SDS011;10918;48.102;11.636;2023-11-18T08:58:45;4.65;;;3.40;;
21513;SDS011;10918;48.102;11.636;2023-11-18T09:01:11;2.65;;;2.20;;
21513;SDS011;10918;48.102;11.636;2023-11-18T09:03:40;1.80;;;1.70;;
21513;SDS011;10918;48.102;11.636;2023-11-18T09:06:13;1.98;;;1.83;;
21513;SDS011;10918;48.102;11.636;2023-11-18T09:08:44;4.47;;;2.05;;
21513;SDS011;10918;48.102;11.636;2023-11-18T09:11:10;3.13;;;2.30;;
21513;SDS011;10918;48.102;11.636;2023-11-18T09:13:39;2.15;;;1.90;;
21513;SDS011;10918;48.102;11.636;2023-11-18T09:16:05;2.38;;;1.70;;
21513;SDS011;10918;48.102;11.636;2023-11-18T09:18:35;1.92;;;1.75;;
21513;SDS011;10918;48.102;11.636;2023-11-18T09:21:02;2.47;;;1.63;;
21513;SDS011;10918;48.102;11.636;2023-11-18T09:23:30;3.13;;;2.30;;
21513;SDS011;10918;48.102;11.636;2023-11-18T09:25:57;6.45;;;5.15;;
21513;SDS011;10918;48.102;11.636;2023-11-18T09:28:23;2.28;;;1.90;;
21513;SDS011;10918;48.102;11.636;2023-11-18T09:30:50;2.10;;;1.60;;
21513;SDS011;10918;48.102;11.636;2023-11-18T09:33:22;2.20;;;2.00;;
21513;SDS011;10918;48.102;11.636;2023-11-18T09:35:57;1.95;;;1.75;;
21513;SDS011;10918;48.102;11.636;2023-11-18T09:40:56;1.73;;;1.52;;
21513;SDS011;10918;48.102;11.636;2023-11-18T09:43:23;3.08;;;1.75;;
21513;SDS011;10918;48.102;11.636;2023-11-18T09:45:53;2.75;;;1.60;;
21513;SDS011;10918;48.102;11.636;2023-11-18T09:48:20;1.67;;;1.50;;
21513;SDS011;10918;48.102;11.636;2023-11-18T09:50:50;1.60;;;1.35;;
21513;SDS011;10918;48.102;11.636;2023-11-18T09:53:17;2.08;;;1.88;;
21513;SDS011;10918;48.102;11.636;2023-11-18T09:55:52;1.52;;;1.42;;
21513;SDS011;10918;48.102;11.636;2023-11-18T09:58:24;1.40;;;1.30;;
21513;SDS011;10918;48.102;11.636;2023-11-18T10:00:52;1.63;;;1.30;;
21513;SDS011;10918;48.102;11.636;2023-11-18T10:03:22;2.28;;;1.30;;
21513;SDS011;10918;48.102;11.636;2023-11-18T10:05:48;1.60;;;1.50;;
21513;SDS011;10918;48.102;11.636;2023-11-18T10:08:15;1.73;;;1.33;;
21513;SDS011;10918;48.102;11.636;2023-11-18T10:10:41;1.20;;;1.10;;
21513;SDS011;10918;48.102;11.636;2023-11-18T10:13:10;1.30;;;1.20;;
21513;SDS011;10918;48.102;11.636;2023-11-18T10:15:51;1.40;;;1.30;;
21513;SDS011;10918;48.102;11.636;2023-11-18T10:18:18;2.00;;;1.30;;
21513;SDS011;10918;48.102;11.636;2023-11-18T10:20:48;1.20;;;1.10;;
21513;SDS011;10918;48.102;11.636;2023-11-18T10:23:19;0.98;;;0.98;;
21513;SDS011;10918;48.102;11.636;2023-11-18T10:25:46;2.08;;;1.25;;
21513;SDS011;10918;48.102;11.636;2023-11-18T10:30:52;1.45;;;1.00;;
21513;SDS011;10918;48.102;11.636;2023-11-18T10:33:18;1.63;;;1.30;;
21513;SDS011;10918;48.102;11.636;2023-11-18T10:35:51;1.20;;;1.10;;
21513;SDS011;10918;48.102;11.636;2023-11-18T10:38:20;1.35;;;0.90;;
21513;SDS011;10918;48.102;11.636;2023-11-18T10:40:50;0.88;;;0.88;;
21513;SDS011;10918;48.102;11.636;2023-11-18T10:43:17;1.58;;;0.82;;
21513;SDS011;10918;48.102;11.636;2023-11-18T10:45:43;0.70;;;0.70;;
21513;SDS011;10918;48.102;11.636;2023-11-18T10:48:11;1.40;;;1.30;;
21513;SDS011;10918;48.102;11.636;2023-11-18T10:50:41;11.15;;;8.85;;
21513;SDS011;10918;48.102;11.636;2023-11-18T10:53:07;2.50;;;1.20;;
21513;SDS011;10918;48.102;11.636;2023-11-18T10:55:37;0.90;;;0.88;;
21513;SDS011;10918;48.102;11.636;2023-11-18T10:58:03;1.73;;;1.23;;
21513;SDS011;10918;48.102;11.636;2023-11-18T11:03:14;2.13;;;1.10;;
21513;SDS011;10918;48.102;11.636;2023-11-18T11:05:41;1.00;;;0.90;;
21513;SDS011;10918;48.102;11.636;2023-11-18T11:08:08;2.22;;;1.10;;
21513;SDS011;10918;48.102;11.636;2023-11-18T11:10:38;1.38;;;1.00;;
21513;SDS011;10918;48.102;11.636;2023-11-18T11:13:06;1.05;;;0.90;;
21513;SDS011;10918;48.102;11.636;2023-11-18T11:15:33;1.40;;;1.00;;
21513;SDS011;10918;48.102;11.636;2023-11-18T11:18:10;0.93;;;0.80;;
21513;SDS011;10918;48.102;11.636;2023-11-18T11:26:23;1.35;;;1.00;;
21513;SDS011;10918;48.102;11.636;2023-11-18T11:29:18;1.73;;;1.10;;
21513;SDS011;10918;48.102;11.636;2023-11-18T11:31:39;1.30;;;1.00;;
21513;SDS011;10918;48.102;11.636;2023-11-18T11:34:07;1.35;;;1.17;;
21513;SDS011;10918;48.102;11.636;2023-11-18T11:36:42;2.15;;;1.10;;
21513;SDS011;10918;48.102;11.636;2023-11-18T11:39:11;1.10;;;0.95;;
21513;SDS011;10918;48.102;11.636;2023-11-18T11:41:45;1.30;;;0.90;;
21513;SDS011;10918;48.102;11.636;2023-11-18T11:44:12;1.95;;;0.93;;
21513;SDS011;10918;48.102;11.636;2023-11-18T11:46:38;2.45;;;0.82;;
21513;SDS011;10918;48.102;11.636;2023-11-18T11:49:07;0.90;;;0.80;;
21513;SDS011;10918;48.102;11.636;2023-11-18T11:51:46;1.33;;;0.70;;
21513;SDS011;10918;48.102;11.636;2023-11-18T11:54:29;1.75;;;0.80;;
21513;SDS011;10918;48.102;11.636;2023-11-18T11:57:01;1.02;;;0.93;;
21513;SDS011;10918;48.102;11.636;2023-11-18T12:02:17;0.60;;;0.60;;
21513;SDS011;10918;48.102;11.636;2023-11-18T12:04:46;0.95;;;0.75;;
21513;SDS011;10918;48.102;11.636;2023-11-18T12:07:12;2.15;;;0.95;;
21513;SDS011;10918;48.102;11.636;2023-11-18T12:09:40;2.53;;;1.55;;
21513;SDS011;10918;48.102;11.636;2023-11-18T12:12:18;2.65;;;1.10;;
21513;SDS011;10918;48.102;11.636;2023-11-18T12:14:49;2.22;;;1.02;;
21513;SDS011;10918;48.102;11.636;2023-11-18T12:17:15;1.50;;;1.02;;
21513;SDS011;10918;48.102;11.636;2023-11-18T12:19:48;1.25;;;1.00;;
21513;SDS011;10918;48.102;11.636;2023-11-18T12:22:18;0.95;;;0.70;;
21513;SDS011;10918;48.102;11.636;2023-11-18T12:30:07;0.77;;;0.73;;
21513;SDS011;10918;48.102;11.636;2023-11-18T12:32:58;3.15;;;0.90;;
21513;SDS011;10918;48.102;11.636;2023-11-18T12:35:29;2.47;;;0.80;;
21513;SDS011;10918;48.102;11.636;2023-11-18T12:43:11;1.20;;;0.82;;
21513;SDS011;10918;48.102;11.636;2023-11-18T12:45:43;1.15;;;1.00;;
21513;SDS011;10918;48.102;11.636;2023-11-18T12:48:13;2.28;;;1.00;;
21513;SDS011;10918;48.102;11.636;2023-11-18T12:50:40;2.50;;;1.23;;
21513;SDS011;10918;48.102;11.636;2023-11-18T12:53:08;0.68;;;0.68;;
21513;SDS011;10918;48.102;11.636;2023-11-18T12:55:34;1.15;;;1.00;;
21513;SDS011;10918;48.102;11.636;2023-11-18T12:58:01;1.67;;;0.88;;
21513;SDS011;10918;48.102;11.636;2023-11-18T13:00:30;1.77;;;1.02;;
21513;SDS011;10918;48.102;11.636;2023-11-18T13:02:59;1.60;;;1.10;;
21513;SDS011;10918;48.102;11.636;2023-11-18T13:05:25;0.90;;;0.90;;
21513;SDS011;10918;48.102;11.636;2023-11-18T13:07:58;2.78;;;0.90;;
21513;SDS011;10918;48.102;11.636;2023-11-18T13:10:26;1.20;;;0.90;;
21513;SDS011;10918;48.102;11.636;2023-11-18T13:12:55;2.63;;;0.90;;
21513;SDS011;10918;48.102;11.636;2023-11-18T13:15:22;1.55;;;1.00;;
21513;SDS011;10918;48.102;11.636;2023-11-18T13:20:25;3.83;;;2.30;;
21513;SDS011;10918;48.102;11.636;2023-11-18T13:22:51;1.67;;;1.08;;
21513;SDS011;10918;48.102;11.636;2023-11-18T13:25:20;1.42;;;1.33;;
21513;SDS011;10918;48.102;11.636;2023-11-18T13:27:46;1.20;;;1.00;;
21513;SDS011;10918;48.102;11.636;2023-11-18T13:30:12;2.25;;;1.10;;
21513;SDS011;10918;48.102;11.636;2023-11-18T13:32:42;1.10;;;0.85;;
21513;SDS011;10918;48.102;11.636;2023-11-18T13:35:08;1.35;;;1.13;;
21513;SDS011;10918;48.102;11.636;2023-11-18T13:37:34;1.40;;;1.20;;
21513;SDS011;10918;48.102;11.636;2023-11-18T13:40:00;1.20;;;1.02;;
21513;SDS011;10918;48.102;11.636;2023-11-18T13:42:31;1.50;;;1.10;;
21513;SDS011;10918;48.102;11.636;2023-11-18T13:45:05;1.60;;;1.00;;
21513;SDS011;10918;48.102;11.636;2023-11-18T13:47:33;3.15;;;1.25;;
21513;SDS011;10918;48.102;11.636;2023-11-18T13:49:59;1.50;;;0.93;;
21513;SDS011;10918;48.102;11.636;2023-11-18T13:52:25;1.83;;;0.90;;
21513;SDS011;10918;48.102;11.636;2023-11-18T13:54:51;1.08;;;0.85;;
21513;SDS011;10918;48.102;11.636;2023-11-18T13:57:22;1.48;;;1.02;;
21513;SDS011;10918;48.102;11.636;2023-11-18T13:59:52;1.30;;;1.00;;
21513;SDS011;10918;48.102;11.636;2023-11-18T14:02:19;2.28;;;1.25;;
21513;SDS011;10918;48.102;11.636;2023-11-18T14:04:46;3.35;;;1.17;;
21513;SDS011;10918;48.102;11.636;2023-11-18T14:07:15;0.77;;;0.73;;
21513;SDS011;10918;48.102;11.636;2023-11-18T14:09:42;1.73;;;0.85;;
21513;SDS011;10918;48.102;11.636;2023-11-18T14:12:10;1.48;;;0.90;;
21513;SDS011;10918;48.102;11.636;2023-11-18T14:14:36;1.98;;;0.95;;
21513;SDS011;10918;48.102;11.636;2023-11-18T14:17:03;4.07;;;0.85;;
21513;SDS011;10918;48.102;11.636;2023-11-18T14:19:31;1.38;;;0.82;;
21513;SDS011;10918;48.102;11.636;2023-11-18T14:22:00;1.08;;;0.65;;
21513;SDS011;10918;48.102;11.636;2023-11-18T14:24:26;1.33;;;0.60;;
21513;SDS011;10918;48.102;11.636;2023-11-18T14:26:57;2.83;;;1.00;;
21513;SDS011;10918;48.102;11.636;2023-11-18T14:29:23;2.72;;;1.08;;
21513;SDS011;10918;48.102;11.636;2023-11-18T14:31:49;3.80;;;1.08;;
21513;SDS011;10918;48.102;11.636;2023-11-18T14:34:15;3.63;;;1.40;;
21513;SDS011;10918;48.102;11.636;2023-11-18T14:36:41;2.97;;;0.80;;
21513;SDS011;10918;48.102;11.636;2023-11-18T14:39:10;2.35;;;0.93;;
21513;SDS011;10918;48.102;11.636;2023-11-18T14:41:39;2.47;;;1.30;;
21513;SDS011;10918;48.102;11.636;2023-11-18T14:44:05;2.17;;;1.10;;
21513;SDS011;10918;48.102;11.636;2023-11-18T14:46:34;3.70;;;1.60;;
21513;SDS011;10918;48.102;11.636;2023-11-18T14:49:00;1.10;;;0.98;;
21513;SDS011;10918;48.102;11.636;2023-11-18T14:51:26;1.55;;;0.98;;
21513;SDS011;10918;48.102;11.636;2023-11-18T14:53:52;2.72;;;1.15;;
21513;SDS011;10918;48.102;11.636;2023-11-18T14:56:18;3.40;;;0.88;;
21513;SDS011;10918;48.102;11.636;2023-11-18T14:58:45;2.58;;;0.93;;
21513;SDS011;10918;48.102;11.636;2023-11-18T15:01:14;3.38;;;0.85;;
21513;SDS011;10918;48.102;11.636;2023-11-18T15:03:40;1.55;;;1.10;;
21513;SDS011;10918;48.102;11.636;2023-11-18T15:06:06;2.03;;;0.88;;
21513;SDS011;10918;48.102;11.636;2023-11-18T15:08:35;2.40;;;1.25;;